createdAt,value
2018-04-26T00:01:16.073Z,9.40
2018-04-26T00:03:45.982Z,17.40
2018-04-26T00:06:15.928Z,11.23
2018-04-26T00:08:45.816Z,25.12
2018-04-26T00:11:15.784Z,13.13
2018-04-26T00:13:46.648Z,10.93
2018-04-26T00:16:16.554Z,14.90
2018-04-26T00:18:47.224Z,11.57
2018-04-26T00:21:17.206Z,9.60
2018-04-26T00:23:47.087Z,14.40
2018-04-26T00:26:17.319Z,14.40
2018-04-26T00:28:47.247Z,12.37
2018-04-26T00:31:17.909Z,11.80
2018-04-26T00:33:48.569Z,18.00
2018-04-26T00:36:18.444Z,17.53
2018-04-26T00:38:48.455Z,11.55
2018-04-26T00:41:18.337Z,12.47
2018-04-26T00:43:48.268Z,13.67
2018-04-26T00:46:18.978Z,11.70
2018-04-26T00:48:48.915Z,12.43
2018-04-26T00:51:25.275Z,20.17
2018-04-26T00:53:55.914Z,14.43
2018-04-26T00:56:26.613Z,15.87
2018-04-26T00:58:56.530Z,17.47
2018-04-26T01:01:26.468Z,20.53
2018-04-26T01:03:57.469Z,12.93
2018-04-26T01:06:27.475Z,15.37
2018-04-26T01:08:57.447Z,13.35
2018-04-26T01:11:28.120Z,14.87
2018-04-26T01:13:58.085Z,19.83
2018-04-26T01:16:28.767Z,12.77
2018-04-26T01:18:58.741Z,18.13
2018-04-26T01:21:29.423Z,12.87
2018-04-26T01:23:59.367Z,15.67
2018-04-26T01:26:29.241Z,13.47
2018-04-26T01:28:59.120Z,26.10
2018-04-26T01:31:30.387Z,18.67
2018-04-26T01:34:00.302Z,26.87
2018-04-26T01:36:41.407Z,13.17
2018-04-26T01:39:11.352Z,17.37
2018-04-26T01:41:41.247Z,16.37
2018-04-26T01:44:11.148Z,16.10
2018-04-26T01:46:41.083Z,15.20
2018-04-26T01:49:10.992Z,16.57
2018-04-26T01:51:40.843Z,16.53
2018-04-26T01:54:11.613Z,14.80
2018-04-26T01:56:41.580Z,16.30
2018-04-26T01:59:11.473Z,18.20
2018-04-26T02:01:41.353Z,22.50
2018-04-26T02:04:11.539Z,24.43
2018-04-26T02:06:42.219Z,24.40
2018-04-26T02:09:12.167Z,33.23
2018-04-26T02:11:42.089Z,42.83
2018-04-26T02:14:12.009Z,33.90
2018-04-26T02:16:42.732Z,39.93
2018-04-26T02:19:13.289Z,35.23
2018-04-26T02:21:44.556Z,50.67
2018-04-26T02:24:14.419Z,51.73
2018-04-26T02:26:45.015Z,42.10
2018-04-26T02:29:14.772Z,36.77
2018-04-26T02:31:45.966Z,43.73
2018-04-26T02:34:15.802Z,39.77
2018-04-26T02:36:45.621Z,49.95
2018-04-26T02:39:15.380Z,39.33
2018-04-26T02:41:45.217Z,38.37
2018-04-26T02:44:15.091Z,36.63
2018-04-26T02:46:45.566Z,36.45
2018-04-26T02:49:15.460Z,38.80
2018-04-26T02:51:45.308Z,41.15
2018-04-26T02:54:15.177Z,39.08
2018-04-26T02:56:45.040Z,30.90
2018-04-26T02:59:14.754Z,37.40
2018-04-26T03:01:44.654Z,33.43
2018-04-26T03:04:14.820Z,31.50
2018-04-26T03:06:44.719Z,30.30
2018-04-26T03:09:15.332Z,33.27
2018-04-26T03:11:45.195Z,33.83
2018-04-26T03:14:15.103Z,51.17
2018-04-26T03:16:45.690Z,31.40
2018-04-26T03:19:15.532Z,30.80
2018-04-26T03:21:46.190Z,33.22
2018-04-26T03:24:16.003Z,33.03
2018-04-26T03:26:45.811Z,27.23
2018-04-26T03:29:15.794Z,26.50
2018-04-26T03:31:46.367Z,32.07
2018-04-26T03:34:16.366Z,28.83
2018-04-26T03:36:46.165Z,26.67
2018-04-26T03:39:15.977Z,28.77
2018-04-26T03:41:45.798Z,24.52
2018-04-26T03:44:15.604Z,25.57
2018-04-26T03:46:46.334Z,26.83
2018-04-26T03:49:16.881Z,34.50
2018-04-26T03:51:46.671Z,31.85
2018-04-26T03:54:17.221Z,28.50
2018-04-26T03:56:47.072Z,25.92
2018-04-26T03:59:16.887Z,24.80
2018-04-26T04:01:58.040Z,33.87
2018-04-26T04:04:38.944Z,24.20
2018-04-26T04:07:09.018Z,24.83
2018-04-26T04:09:38.910Z,30.10
2018-04-26T04:12:09.520Z,25.07
2018-04-26T04:14:39.287Z,26.83
2018-04-26T04:17:09.027Z,26.80
2018-04-26T04:19:39.082Z,26.80
2018-04-26T04:22:08.942Z,32.60
2018-04-26T04:24:38.954Z,23.33
2018-04-26T04:27:09.027Z,24.67
2018-04-26T04:29:39.549Z,30.37
2018-04-26T04:32:10.061Z,24.97
2018-04-26T04:34:39.938Z,23.60
2018-04-26T04:37:09.837Z,21.80
2018-04-26T04:39:39.678Z,23.83
2018-04-26T04:42:09.382Z,27.03
2018-04-26T04:44:39.268Z,29.30
2018-04-26T04:47:09.028Z,25.00
2018-04-26T04:49:39.675Z,26.47
2018-04-26T04:52:10.380Z,31.37
2018-04-26T04:54:40.070Z,32.13
2018-04-26T04:57:10.862Z,35.13
2018-04-26T04:59:41.612Z,27.43
2018-04-26T05:02:11.449Z,28.12
2018-04-26T05:04:41.661Z,31.80
2018-04-26T05:07:11.432Z,29.90
2018-04-26T05:09:42.601Z,29.70
2018-04-26T05:12:12.623Z,28.00
2018-04-26T05:14:42.461Z,34.63
2018-04-26T05:17:12.433Z,29.37
2018-04-26T05:19:42.977Z,28.33
2018-04-26T05:22:12.902Z,34.40
2018-04-26T05:24:42.642Z,34.33
2018-04-26T05:27:12.589Z,23.17
2018-04-26T05:29:43.227Z,28.43
2018-04-26T05:32:13.918Z,24.67
2018-04-26T05:34:43.801Z,23.50
2018-04-26T05:37:15.043Z,29.27
2018-04-26T05:39:44.845Z,29.33
2018-04-26T05:42:14.772Z,32.43
2018-04-26T05:44:44.602Z,50.00
2018-04-26T05:47:14.467Z,46.97
2018-04-26T05:49:45.200Z,55.97
2018-04-26T05:52:17.433Z,40.57
2018-04-26T05:54:47.728Z,26.50
2018-04-26T05:57:17.648Z,23.70
2018-04-26T05:59:50.657Z,18.40
2018-04-26T06:02:21.787Z,22.47
2018-04-26T06:04:54.379Z,16.20
2018-04-26T06:07:25.062Z,15.23
2018-04-26T06:09:54.852Z,22.25
2018-04-26T06:12:25.486Z,27.13
2018-04-26T06:14:56.072Z,13.73
2018-04-26T06:17:25.896Z,17.07
2018-04-26T06:19:56.756Z,17.27
2018-04-26T06:22:29.589Z,18.90
2018-04-26T06:25:00.674Z,20.33
2018-04-26T06:27:30.697Z,27.93
2018-04-26T06:30:00.730Z,23.80
2018-04-26T06:32:31.353Z,26.73
2018-04-26T06:35:02.185Z,22.60
2018-04-26T06:37:32.317Z,19.57
2018-04-26T06:40:03.255Z,14.40
2018-04-26T06:42:33.283Z,13.77
2018-04-26T06:45:06.001Z,13.70
2018-04-26T06:47:37.254Z,12.93
2018-04-26T06:50:08.941Z,12.87
2018-04-26T06:52:41.065Z,15.23
2018-04-26T06:55:11.690Z,23.53
2018-04-26T06:57:43.617Z,14.13
2018-04-26T07:00:15.024Z,13.57
2018-04-26T07:02:45.496Z,12.40
2018-04-26T07:05:16.766Z,11.27
2018-04-26T07:07:47.440Z,11.07
2018-04-26T07:10:18.082Z,12.10
2018-04-26T07:12:48.552Z,10.20
2018-04-26T07:15:19.208Z,11.30
2018-04-26T07:17:49.799Z,11.18
2018-04-26T07:20:22.863Z,10.03
2018-04-26T07:22:54.990Z,10.90
2018-04-26T07:25:26.383Z,15.90
2018-04-26T07:27:56.827Z,29.40
2018-04-26T07:30:29.190Z,12.20
2018-04-26T07:32:59.715Z,12.13
2018-04-26T07:35:30.380Z,13.73
2018-04-26T07:38:01.482Z,14.43
2018-04-26T07:40:33.374Z,22.43
2018-04-26T07:43:05.840Z,15.57
2018-04-26T07:45:37.238Z,20.97
2018-04-26T07:48:08.887Z,17.95
2018-04-26T07:50:39.741Z,23.43
2018-04-26T07:53:11.434Z,16.45
2018-04-26T07:55:46.134Z,26.30
2018-04-26T07:58:19.663Z,15.07
2018-04-26T08:00:52.712Z,16.90
2018-04-26T08:03:23.924Z,25.62
2018-04-26T08:05:55.255Z,17.50
2018-04-26T08:08:25.793Z,20.43
2018-04-26T08:10:56.563Z,16.73
2018-04-26T08:13:27.957Z,16.07
2018-04-26T08:15:59.335Z,17.00
2018-04-26T08:18:31.233Z,18.27
2018-04-26T08:21:01.444Z,22.00
2018-04-26T08:23:31.300Z,16.30
2018-04-26T08:26:01.930Z,22.40
2018-04-26T08:28:32.827Z,14.87
2018-04-26T08:31:02.646Z,12.37
2018-04-26T08:33:32.514Z,14.97
2018-04-26T08:36:02.333Z,15.23
2018-04-26T08:38:33.053Z,13.17
2018-04-26T08:41:02.916Z,11.97
2018-04-26T08:43:32.695Z,16.03
2018-04-26T08:46:02.575Z,11.30
2018-04-26T08:48:33.173Z,11.50
2018-04-26T08:51:03.015Z,8.80
2018-04-26T08:53:33.579Z,8.57
2018-04-26T08:56:03.389Z,8.50
2018-04-26T08:58:33.244Z,8.23
2018-04-26T09:01:03.110Z,8.60
2018-04-26T09:03:32.914Z,11.80
2018-04-26T09:06:02.784Z,7.87
2018-04-26T09:08:32.545Z,6.30
2018-04-26T09:11:02.305Z,6.55
2018-04-26T09:13:32.720Z,6.33
2018-04-26T09:16:04.291Z,8.23
2018-04-26T09:18:36.820Z,6.77
2018-04-26T09:21:07.347Z,10.50
2018-04-26T09:23:39.225Z,6.43
2018-04-26T09:26:09.862Z,16.60
2018-04-26T09:28:40.508Z,8.33
2018-04-26T09:31:12.493Z,5.70
2018-04-26T09:33:44.820Z,6.80
2018-04-26T09:36:16.507Z,8.40
2018-04-26T09:38:47.413Z,7.22
2018-04-26T09:41:19.350Z,6.07
2018-04-26T09:43:50.014Z,6.50
2018-04-26T09:46:27.851Z,13.93
2018-04-26T09:49:03.790Z,7.72
2018-04-26T09:51:34.818Z,10.57
2018-04-26T09:54:05.963Z,9.27
2018-04-26T09:56:38.783Z,8.27
2018-04-26T09:59:11.084Z,11.40
2018-04-26T10:01:41.932Z,8.27
2018-04-26T10:04:19.449Z,6.90
2018-04-26T10:06:57.016Z,7.80
2018-04-26T10:09:31.938Z,7.00
2018-04-26T10:12:02.440Z,6.53
2018-04-26T10:14:33.829Z,10.67
2018-04-26T10:17:04.378Z,13.45
2018-04-26T10:19:35.971Z,8.40
2018-04-26T10:22:08.255Z,7.57
2018-04-26T10:24:41.685Z,10.30
2018-04-26T10:27:12.451Z,7.87
2018-04-26T10:29:43.983Z,12.47
2018-04-26T10:34:53.954Z,7.43
2018-04-26T10:37:24.588Z,6.20
2018-04-26T10:39:56.056Z,7.73
2018-04-26T10:42:26.540Z,8.40
2018-04-26T10:44:59.383Z,10.40
2018-04-26T10:47:31.210Z,7.90
2018-04-26T10:50:02.746Z,11.07
2018-04-26T10:52:33.550Z,7.63
2018-04-26T10:55:13.585Z,10.93
2018-04-26T10:57:45.680Z,7.00
2018-04-26T11:00:16.391Z,6.53
2018-04-26T11:02:48.624Z,6.53
2018-04-26T11:05:20.927Z,7.90
2018-04-26T11:07:52.559Z,12.03
2018-04-26T11:10:25.513Z,13.30
2018-04-26T11:12:58.257Z,26.25
2018-04-26T11:15:28.918Z,10.63
2018-04-26T11:18:00.453Z,12.87
2018-04-26T11:20:30.992Z,10.17
2018-04-26T11:23:06.153Z,20.80
2018-04-26T11:25:37.810Z,14.57
2018-04-26T11:28:08.481Z,21.43
2018-04-26T11:30:39.752Z,15.90
2018-04-26T11:33:10.895Z,17.73
2018-04-26T11:35:42.266Z,20.53
2018-04-26T11:38:13.337Z,27.87
2018-04-26T11:40:45.583Z,12.10
2018-04-26T11:43:20.473Z,16.20
2018-04-26T11:45:53.970Z,13.93
2018-04-26T11:48:24.686Z,10.17
2018-04-26T11:50:57.545Z,12.95
2018-04-26T11:53:30.765Z,19.80
2018-04-26T11:56:02.987Z,10.00
2018-04-26T11:58:33.532Z,13.57
2018-04-26T12:01:04.682Z,13.92
2018-04-26T12:03:34.511Z,9.07
2018-04-26T12:06:05.088Z,27.25
2018-04-26T12:08:34.912Z,17.93
2018-04-26T12:11:04.768Z,8.27
2018-04-26T12:13:35.351Z,7.53
2018-04-26T12:16:05.159Z,7.75
2018-04-26T12:18:34.968Z,6.67
2018-04-26T12:21:04.864Z,7.43
2018-04-26T12:23:34.674Z,6.57
2018-04-26T12:26:05.080Z,13.20
2018-04-26T12:28:35.651Z,7.83
2018-04-26T12:31:05.521Z,11.90
2018-04-26T12:33:36.300Z,7.43
2018-04-26T12:36:06.589Z,16.63
2018-04-26T12:38:36.429Z,6.60
2018-04-26T12:41:06.312Z,8.10
2018-04-26T12:43:37.248Z,6.80
2018-04-26T12:46:08.108Z,13.57
2018-04-26T12:48:37.922Z,9.47
2018-04-26T12:51:07.753Z,14.23
2018-04-26T12:53:37.618Z,12.60
2018-04-26T12:56:08.186Z,8.33
2018-04-26T12:58:38.059Z,15.27
2018-04-26T13:01:08.687Z,18.13
2018-04-26T13:03:39.799Z,9.43
2018-04-26T13:06:09.656Z,5.43
2018-04-26T13:08:39.697Z,11.87
2018-04-26T13:11:09.512Z,11.17
2018-04-26T13:13:39.330Z,8.90
2018-04-26T13:16:09.115Z,5.63
2018-04-26T13:18:38.948Z,10.67
2018-04-26T13:21:08.793Z,6.60
2018-04-26T13:23:38.642Z,23.00
2018-04-26T13:26:11.071Z,15.50
2018-04-26T13:28:41.976Z,8.17
2018-04-26T13:31:11.818Z,10.83
2018-04-26T13:33:41.646Z,13.13
2018-04-26T13:36:11.492Z,9.10
2018-04-26T13:38:42.090Z,6.63
2018-04-26T13:41:11.930Z,17.93
2018-04-26T13:43:42.537Z,13.97
2018-04-26T13:46:12.353Z,10.20
2018-04-26T13:48:42.204Z,15.43
2018-04-26T13:51:12.175Z,24.23
2018-04-26T13:53:41.962Z,19.27
2018-04-26T13:56:11.730Z,13.93
2018-04-26T13:58:42.319Z,8.87
2018-04-26T14:01:12.144Z,14.57
2018-04-26T14:03:41.942Z,7.63
2018-04-26T14:06:11.734Z,9.30
2018-04-26T14:08:41.519Z,6.53
2018-04-26T14:11:11.309Z,10.93
2018-04-26T14:13:41.878Z,13.57
2018-04-26T14:16:11.731Z,14.13
2018-04-26T14:18:43.167Z,22.93
2018-04-26T14:21:12.988Z,18.45
2018-04-26T14:23:42.766Z,26.30
2018-04-26T14:26:12.565Z,7.93
2018-04-26T14:28:43.166Z,12.32
2018-04-26T14:31:13.734Z,29.53
2018-04-26T14:33:43.505Z,19.15
2018-04-26T14:36:14.043Z,16.97
2018-04-26T14:38:45.500Z,17.73
2018-04-26T14:41:15.293Z,13.17
2018-04-26T14:43:45.374Z,30.70
2018-04-26T14:46:15.327Z,24.97
2018-04-26T14:48:50.507Z,17.13
2018-04-26T14:51:21.238Z,19.30
2018-04-26T14:53:51.501Z,19.55
2018-04-26T14:56:22.167Z,16.60
2018-04-26T14:58:52.739Z,10.38
2018-04-26T15:01:22.530Z,21.30
2018-04-26T15:03:53.299Z,13.32
2018-04-26T15:06:23.073Z,10.67
2018-04-26T15:08:52.945Z,27.57
2018-04-26T15:11:23.507Z,5.93
2018-04-26T15:13:53.244Z,13.87
2018-04-26T15:16:23.027Z,12.70
2018-04-26T15:18:52.797Z,7.40
2018-04-26T15:21:22.841Z,13.50
2018-04-26T15:23:53.560Z,8.20
2018-04-26T15:26:23.350Z,18.73
2018-04-26T15:28:53.347Z,12.80
2018-04-26T15:31:23.344Z,8.40
2018-04-26T15:33:53.466Z,15.80
2018-04-26T15:36:23.823Z,7.70
2018-04-26T15:38:53.739Z,15.77
2018-04-26T15:41:23.775Z,9.10
2018-04-26T15:43:53.892Z,5.68
2018-04-26T15:46:23.954Z,10.33
2018-04-26T15:48:54.877Z,6.13
2018-04-26T15:51:26.532Z,5.30
2018-04-26T15:54:08.332Z,9.13
2018-04-26T15:59:59.675Z,12.27
2018-04-26T16:02:58.981Z,6.37
2018-04-26T16:05:40.788Z,8.83
2018-04-26T16:08:26.854Z,10.23
2018-04-26T16:11:14.267Z,8.07
2018-04-26T16:14:02.220Z,14.87
2018-04-26T16:16:48.425Z,14.33
2018-04-26T16:19:50.499Z,5.73
2018-04-26T16:22:36.787Z,9.35
2018-04-26T16:25:17.549Z,4.97
2018-04-26T16:28:17.663Z,10.13
2018-04-26T16:31:13.496Z,7.90
2018-04-26T16:33:54.315Z,10.80
2018-04-26T16:36:35.133Z,7.93
2018-04-26T16:39:10.549Z,12.32
2018-04-26T16:41:40.423Z,8.20
2018-04-26T16:44:10.230Z,7.03
2018-04-26T16:46:40.274Z,17.20
2018-04-26T16:49:10.017Z,13.90
2018-04-26T16:51:41.158Z,12.17
2018-04-26T16:54:11.689Z,8.27
2018-04-26T16:56:42.221Z,11.20
2018-04-26T16:59:12.780Z,8.30
2018-04-26T17:01:42.592Z,19.33
2018-04-26T17:04:12.559Z,17.00
2018-04-26T17:06:42.386Z,7.60
2018-04-26T17:09:13.171Z,8.27
2018-04-26T17:11:43.893Z,9.18
2018-04-26T17:14:14.011Z,14.53
2018-04-26T17:16:43.803Z,10.73
2018-04-26T17:19:16.022Z,8.40
2018-04-26T17:21:47.924Z,16.13
2018-04-26T17:24:17.812Z,8.50
2018-04-26T17:26:48.648Z,8.00
2018-04-26T17:29:18.457Z,8.97
2018-04-26T17:31:48.213Z,12.70
2018-04-26T17:34:19.025Z,8.02
2018-04-26T17:36:50.271Z,13.30
2018-04-26T17:39:20.055Z,10.60
2018-04-26T17:41:49.836Z,17.30
2018-04-26T17:44:19.568Z,15.07
2018-04-26T17:46:50.309Z,18.70
2018-04-26T17:49:20.110Z,8.23
2018-04-26T17:51:49.975Z,13.97
2018-04-26T17:54:20.995Z,8.73
2018-04-26T17:56:51.604Z,18.13
2018-04-26T17:59:21.956Z,11.57
2018-04-26T18:01:52.471Z,11.20
2018-04-26T18:04:22.811Z,18.53
2018-04-26T18:06:53.382Z,32.77
2018-04-26T18:09:23.383Z,13.33
2018-04-26T18:11:53.704Z,14.43
2018-04-26T18:14:24.070Z,11.47
2018-04-26T18:16:53.828Z,16.10
2018-04-26T18:19:24.414Z,19.83
2018-04-26T18:21:54.622Z,18.00
2018-04-26T18:24:24.417Z,14.00
2018-04-26T18:26:54.214Z,19.30
2018-04-26T18:29:24.016Z,11.40
2018-04-26T18:31:53.962Z,21.33
2018-04-26T18:34:23.791Z,21.23
2018-04-26T18:36:53.588Z,16.33
2018-04-26T18:39:23.372Z,15.27
2018-04-26T18:41:53.186Z,20.33
2018-04-26T18:44:23.598Z,14.33
2018-04-26T18:46:54.262Z,14.23
2018-04-26T18:49:24.004Z,16.00
2018-04-26T18:51:53.786Z,19.62
2018-04-26T18:54:23.636Z,12.93
2018-04-26T18:56:53.522Z,14.77
2018-04-26T18:59:23.307Z,20.93
2018-04-26T19:01:53.111Z,24.15
2018-04-26T19:04:22.916Z,13.85
2018-04-26T19:06:53.465Z,11.87
2018-04-26T19:09:24.045Z,20.33
2018-04-26T19:11:54.140Z,14.18
2018-04-26T19:14:23.957Z,20.53
2018-04-26T19:16:53.721Z,19.40
2018-04-26T19:19:23.597Z,23.50
2018-04-26T19:21:53.374Z,9.80
2018-04-26T19:24:23.218Z,34.10
2018-04-26T19:26:53.092Z,14.17
2018-04-26T19:29:23.827Z,14.83
2018-04-26T19:31:53.597Z,17.17
2018-04-26T19:34:23.503Z,15.68
2018-04-26T19:36:54.396Z,29.77
2018-04-26T19:39:24.157Z,15.70
2018-04-26T19:41:54.720Z,20.08
2018-04-26T19:44:24.489Z,14.00
2018-04-26T19:46:55.079Z,20.37
2018-04-26T19:49:24.873Z,15.07
2018-04-26T19:51:54.659Z,11.23
2018-04-26T19:54:24.524Z,13.13
2018-04-26T19:56:55.385Z,14.68
2018-04-26T19:59:25.213Z,23.27
2018-04-26T20:01:55.791Z,18.95
2018-04-26T20:04:25.587Z,13.63
2018-04-26T20:06:55.343Z,20.65
2018-04-26T20:09:30.370Z,13.17
2018-04-26T20:12:00.149Z,16.83
2018-04-26T20:14:30.366Z,14.90
2018-04-26T20:17:00.185Z,19.48
2018-04-26T20:19:29.980Z,15.10
2018-04-26T20:21:59.785Z,19.60
2018-04-26T20:24:30.338Z,18.60
2018-04-26T20:27:00.327Z,16.58
2018-04-26T20:29:30.833Z,16.60
2018-04-26T20:32:00.632Z,12.10
2018-04-26T20:34:30.633Z,17.53
2018-04-26T20:37:00.406Z,29.27
2018-04-26T20:39:31.417Z,12.80
2018-04-26T20:42:01.224Z,17.60
2018-04-26T20:44:41.954Z,14.20
2018-04-26T20:47:11.754Z,13.00
2018-04-26T20:49:41.558Z,12.57
2018-04-26T20:52:11.341Z,15.80
2018-04-26T20:54:41.882Z,10.27
2018-04-26T20:57:12.488Z,13.87
2018-04-26T20:59:42.362Z,20.10
2018-04-26T21:02:12.161Z,16.27
2018-04-26T21:04:41.954Z,20.43
2018-04-26T21:07:11.754Z,9.83
2018-04-26T21:09:44.130Z,12.67
2018-04-26T21:12:14.735Z,16.57
2018-04-26T21:14:44.516Z,11.57
2018-04-26T21:17:14.284Z,10.90
2018-04-26T21:19:44.919Z,10.27
2018-04-26T21:22:15.444Z,20.70
2018-04-26T21:24:45.346Z,10.73
2018-04-26T21:27:15.862Z,17.03
2018-04-26T21:29:45.612Z,13.90
2018-04-26T21:32:15.403Z,15.33
2018-04-26T21:34:46.333Z,15.30
2018-04-26T21:37:16.863Z,15.37
2018-04-26T21:39:49.345Z,12.67
2018-04-26T21:42:20.207Z,9.43
2018-04-26T21:44:49.995Z,14.90
2018-04-26T21:47:20.524Z,12.53
2018-04-26T21:49:56.238Z,9.47
2018-04-26T21:52:31.136Z,16.33
2018-04-26T21:55:06.041Z,9.40
2018-04-26T21:57:41.673Z,11.40
2018-04-26T22:00:17.387Z,12.30
2018-04-26T22:02:47.347Z,14.00
2018-04-26T22:05:19.940Z,22.33
2018-04-26T22:07:50.571Z,18.00
2018-04-26T22:10:20.478Z,15.57
2018-04-26T22:12:51.295Z,10.23
2018-04-26T22:15:21.097Z,13.93
2018-04-26T22:17:50.920Z,14.00
2018-04-26T22:22:56.267Z,12.80
2018-04-26T22:25:26.042Z,13.00
2018-04-26T22:27:55.862Z,9.97
2018-04-26T22:30:26.482Z,9.63
2018-04-26T22:32:56.286Z,13.55
2018-04-26T22:35:26.855Z,20.20
2018-04-26T22:37:56.669Z,8.80
2018-04-26T22:40:26.761Z,11.10
2018-04-26T22:42:56.635Z,9.18
2018-04-26T22:45:27.193Z,11.60
2018-04-26T22:47:56.956Z,8.15
2018-04-26T22:50:26.753Z,10.90
2018-04-26T22:52:56.544Z,10.75
2018-04-26T22:55:26.503Z,13.03
2018-04-26T22:57:57.039Z,14.93
2018-04-26T23:00:28.643Z,13.40
2018-04-26T23:02:58.432Z,18.40
2018-04-26T23:05:28.210Z,12.60
2018-04-26T23:07:58.766Z,11.23
2018-04-26T23:10:28.595Z,14.07
2018-04-26T23:12:58.485Z,8.93
2018-04-26T23:15:28.302Z,11.30
2018-04-26T23:17:58.103Z,16.77
2018-04-26T23:20:28.659Z,20.07
2018-04-26T23:22:58.460Z,15.95
2018-04-26T23:25:28.215Z,14.37
2018-04-26T23:27:58.025Z,12.70
2018-04-26T23:30:27.797Z,14.90
2018-04-26T23:32:57.532Z,18.17
2018-04-26T23:35:27.342Z,14.13
2018-04-26T23:37:57.179Z,12.87
2018-04-26T23:40:26.938Z,13.73
2018-04-26T23:42:56.734Z,9.73
2018-04-26T23:45:27.356Z,8.77
2018-04-26T23:47:57.921Z,9.47
2018-04-26T23:50:27.735Z,10.67
2018-04-26T23:52:57.491Z,8.20
2018-04-26T23:55:27.263Z,11.43
2018-04-26T23:57:57.028Z,6.93
